sensor_id;sensor_type;location;lat;lon;timestamp;P1;durP1;ratioP1;P2;durP2;ratioP2
66667;SDS011;57205;51.438;-2.006;2024-02-21T00:01:55;8.73;;;2.55;;
66667;SDS011;57205;51.438;-2.006;2024-02-21T00:04:27;10.57;;;2.50;;
66667;SDS011;57205;51.438;-2.006;2024-02-21T00:06:52;10.75;;;2.97;;
66667;SDS011;57205;51.438;-2.006;2024-02-21T00:09:19;12.13;;;2.40;;
66667;SDS011;57205;51.438;-2.006;2024-02-21T00:12:00;9.23;;;2.72;;
66667;SDS011;57205;51.438;-2.006;2024-02-21T00:14:26;13.52;;;2.80;;
66667;SDS011;57205;51.438;-2.006;2024-02-21T00:20:13;12.40;;;2.40;;
66667;SDS011;57205;51.438;-2.006;2024-02-21T00:22:39;8.18;;;2.63;;
66667;SDS011;57205;51.438;-2.006;2024-02-21T00:25:06;8.15;;;2.30;;
66667;SDS011;57205;51.438;-2.006;2024-02-21T00:27:32;13.60;;;2.95;;
66667;SDS011;57205;51.438;-2.006;2024-02-21T00:29:58;10.90;;;2.65;;
66667;SDS011;57205;51.438;-2.006;2024-02-21T00:35:08;13.20;;;3.05;;
66667;SDS011;57205;51.438;-2.006;2024-02-21T00:37:34;12.23;;;2.85;;
66667;SDS011;57205;51.438;-2.006;2024-02-21T00:40:00;16.45;;;2.63;;
66667;SDS011;57205;51.438;-2.006;2024-02-21T00:42:26;13.48;;;2.47;;
66667;SDS011;57205;51.438;-2.006;2024-02-21T00:44:51;8.57;;;2.20;;
66667;SDS011;57205;51.438;-2.006;2024-02-21T00:47:26;8.02;;;2.45;;
66667;SDS011;57205;51.438;-2.006;2024-02-21T00:49:51;10.60;;;3.00;;
66667;SDS011;57205;51.438;-2.006;2024-02-21T00:52:17;12.32;;;4.03;;
66667;SDS011;57205;51.438;-2.006;2024-02-21T00:54:46;13.00;;;3.00;;
66667;SDS011;57205;51.438;-2.006;2024-02-21T00:57:11;10.10;;;2.20;;
66667;SDS011;57205;51.438;-2.006;2024-02-21T00:59:37;11.93;;;2.78;;
66667;SDS011;57205;51.438;-2.006;2024-02-21T01:02:04;10.00;;;2.67;;
66667;SDS011;57205;51.438;-2.006;2024-02-21T01:04:29;7.32;;;2.38;;
66667;SDS011;57205;51.438;-2.006;2024-02-21T01:06:55;7.75;;;2.00;;
66667;SDS011;57205;51.438;-2.006;2024-02-21T01:09:20;10.30;;;2.63;;
66667;SDS011;57205;51.438;-2.006;2024-02-21T01:11:51;7.85;;;2.25;;
66667;SDS011;57205;51.438;-2.006;2024-02-21T01:14:18;10.00;;;2.20;;
66667;SDS011;57205;51.438;-2.006;2024-02-21T01:16:43;10.10;;;2.20;;
66667;SDS011;57205;51.438;-2.006;2024-02-21T01:19:09;9.40;;;2.10;;
66667;SDS011;57205;51.438;-2.006;2024-02-21T01:21:34;8.50;;;2.30;;
66667;SDS011;57205;51.438;-2.006;2024-02-21T01:23:59;9.63;;;2.00;;
66667;SDS011;57205;51.438;-2.006;2024-02-21T01:26:25;9.05;;;2.20;;
66667;SDS011;57205;51.438;-2.006;2024-02-21T01:28:50;7.72;;;2.30;;
66667;SDS011;57205;51.438;-2.006;2024-02-21T01:31:16;5.88;;;2.17;;
66667;SDS011;57205;51.438;-2.006;2024-02-21T01:37:03;11.38;;;3.45;;
66667;SDS011;57205;51.438;-2.006;2024-02-21T01:39:30;10.60;;;2.75;;
66667;SDS011;57205;51.438;-2.006;2024-02-21T01:41:56;11.43;;;2.70;;
66667;SDS011;57205;51.438;-2.006;2024-02-21T01:44:21;9.02;;;2.35;;
66667;SDS011;57205;51.438;-2.006;2024-02-21T01:46:48;9.25;;;2.60;;
66667;SDS011;57205;51.438;-2.006;2024-02-21T01:49:13;11.02;;;3.00;;
66667;SDS011;57205;51.438;-2.006;2024-02-21T01:51:39;11.60;;;2.80;;
66667;SDS011;57205;51.438;-2.006;2024-02-21T01:54:05;10.50;;;3.10;;
66667;SDS011;57205;51.438;-2.006;2024-02-21T01:56:31;10.52;;;2.83;;
66667;SDS011;57205;51.438;-2.006;2024-02-21T01:58:57;8.93;;;3.05;;
66667;SDS011;57205;51.438;-2.006;2024-02-21T02:01:23;12.38;;;2.85;;
66667;SDS011;57205;51.438;-2.006;2024-02-21T02:03:48;8.48;;;3.00;;
66667;SDS011;57205;51.438;-2.006;2024-02-21T02:06:14;6.75;;;2.85;;
66667;SDS011;57205;51.438;-2.006;2024-02-21T02:08:39;7.63;;;2.92;;
66667;SDS011;57205;51.438;-2.006;2024-02-21T02:11:05;11.10;;;2.55;;
66667;SDS011;57205;51.438;-2.006;2024-02-21T02:13:32;10.85;;;2.80;;
66667;SDS011;57205;51.438;-2.006;2024-02-21T02:15:57;8.45;;;2.72;;
66667;SDS011;57205;51.438;-2.006;2024-02-21T02:18:23;9.77;;;2.65;;
66667;SDS011;57205;51.438;-2.006;2024-02-21T02:20:48;5.60;;;2.47;;
66667;SDS011;57205;51.438;-2.006;2024-02-21T02:23:29;7.03;;;2.40;;
66667;SDS011;57205;51.438;-2.006;2024-02-21T02:25:55;8.90;;;2.58;;
66667;SDS011;57205;51.438;-2.006;2024-02-21T02:28:21;11.02;;;2.63;;
66667;SDS011;57205;51.438;-2.006;2024-02-21T02:30:47;10.82;;;2.78;;
66667;SDS011;57205;51.438;-2.006;2024-02-21T02:33:13;8.02;;;2.38;;
66667;SDS011;57205;51.438;-2.006;2024-02-21T02:35:39;8.30;;;2.30;;
66667;SDS011;57205;51.438;-2.006;2024-02-21T02:38:04;12.75;;;3.22;;
66667;SDS011;57205;51.438;-2.006;2024-02-21T02:40:31;12.50;;;3.47;;
66667;SDS011;57205;51.438;-2.006;2024-02-21T02:42:58;10.60;;;3.10;;
66667;SDS011;57205;51.438;-2.006;2024-02-21T02:45:23;8.35;;;2.97;;
66667;SDS011;57205;51.438;-2.006;2024-02-21T02:47:51;12.13;;;3.20;;
66667;SDS011;57205;51.438;-2.006;2024-02-21T02:53:41;9.10;;;2.72;;
66667;SDS011;57205;51.438;-2.006;2024-02-21T02:56:07;15.10;;;2.85;;
66667;SDS011;57205;51.438;-2.006;2024-02-21T02:58:38;8.32;;;2.83;;
66667;SDS011;57205;51.438;-2.006;2024-02-21T03:03:48;9.65;;;3.40;;
66667;SDS011;57205;51.438;-2.006;2024-02-21T03:06:14;10.35;;;2.55;;
66667;SDS011;57205;51.438;-2.006;2024-02-21T03:08:40;10.23;;;3.22;;
66667;SDS011;57205;51.438;-2.006;2024-02-21T03:21:00;9.45;;;2.97;;
66667;SDS011;57205;51.438;-2.006;2024-02-21T03:23:26;8.38;;;2.70;;
66667;SDS011;57205;51.438;-2.006;2024-02-21T03:25:55;8.88;;;3.03;;
66667;SDS011;57205;51.438;-2.006;2024-02-21T03:28:22;7.28;;;2.85;;
66667;SDS011;57205;51.438;-2.006;2024-02-21T03:30:47;7.10;;;2.55;;
66667;SDS011;57205;51.438;-2.006;2024-02-21T03:33:13;6.97;;;2.88;;
66667;SDS011;57205;51.438;-2.006;2024-02-21T03:35:40;9.52;;;2.70;;
66667;SDS011;57205;51.438;-2.006;2024-02-21T03:38:06;12.35;;;2.90;;
66667;SDS011;57205;51.438;-2.006;2024-02-21T03:40:31;8.45;;;3.15;;
66667;SDS011;57205;51.438;-2.006;2024-02-21T03:42:57;10.50;;;3.08;;
66667;SDS011;57205;51.438;-2.006;2024-02-21T03:45:23;6.50;;;2.70;;
66667;SDS011;57205;51.438;-2.006;2024-02-21T03:47:52;9.23;;;2.95;;
66667;SDS011;57205;51.438;-2.006;2024-02-21T03:50:17;6.70;;;2.72;;
66667;SDS011;57205;51.438;-2.006;2024-02-21T03:52:43;6.15;;;2.35;;
66667;SDS011;57205;51.438;-2.006;2024-02-21T03:55:13;6.78;;;2.60;;
66667;SDS011;57205;51.438;-2.006;2024-02-21T03:57:40;15.07;;;3.47;;
66667;SDS011;57205;51.438;-2.006;2024-02-21T04:00:06;9.15;;;3.00;;
66667;SDS011;57205;51.438;-2.006;2024-02-21T04:02:36;7.93;;;2.78;;
66667;SDS011;57205;51.438;-2.006;2024-02-21T04:08:17;10.15;;;2.42;;
66667;SDS011;57205;51.438;-2.006;2024-02-21T04:10:45;9.00;;;2.72;;
66667;SDS011;57205;51.438;-2.006;2024-02-21T04:13:13;11.60;;;4.00;;
66667;SDS011;57205;51.438;-2.006;2024-02-21T04:15:40;10.38;;;3.13;;
66667;SDS011;57205;51.438;-2.006;2024-02-21T04:18:20;11.77;;;2.38;;
66667;SDS011;57205;51.438;-2.006;2024-02-21T04:20:52;6.90;;;2.70;;
66667;SDS011;57205;51.438;-2.006;2024-02-21T04:27:10;12.30;;;2.08;;
66667;SDS011;57205;51.438;-2.006;2024-02-21T04:32:53;15.48;;;3.80;;
66667;SDS011;57205;51.438;-2.006;2024-02-21T04:35:30;7.18;;;2.22;;
66667;SDS011;57205;51.438;-2.006;2024-02-21T04:44:42;8.48;;;2.70;;
66667;SDS011;57205;51.438;-2.006;2024-02-21T04:50:16;6.83;;;2.27;;
66667;SDS011;57205;51.438;-2.006;2024-02-21T04:58:31;11.63;;;2.40;;
66667;SDS011;57205;51.438;-2.006;2024-02-21T05:01:17;9.43;;;2.80;;
66667;SDS011;57205;51.438;-2.006;2024-02-21T05:25:53;10.55;;;2.65;;
66667;SDS011;57205;51.438;-2.006;2024-02-21T05:28:19;10.05;;;2.10;;
66667;SDS011;57205;51.438;-2.006;2024-02-21T05:30:45;9.00;;;2.28;;
66667;SDS011;57205;51.438;-2.006;2024-02-21T05:33:10;10.07;;;2.28;;
66667;SDS011;57205;51.438;-2.006;2024-02-21T05:35:36;10.10;;;2.03;;
66667;SDS011;57205;51.438;-2.006;2024-02-21T05:38:03;9.40;;;2.78;;
66667;SDS011;57205;51.438;-2.006;2024-02-21T05:40:31;7.50;;;1.70;;
66667;SDS011;57205;51.438;-2.006;2024-02-21T05:46:19;7.68;;;1.88;;
66667;SDS011;57205;51.438;-2.006;2024-02-21T05:48:46;6.90;;;1.80;;
66667;SDS011;57205;51.438;-2.006;2024-02-21T05:51:12;12.32;;;4.38;;
66667;SDS011;57205;51.438;-2.006;2024-02-21T05:53:38;5.55;;;1.75;;
66667;SDS011;57205;51.438;-2.006;2024-02-21T05:56:09;5.30;;;1.60;;
66667;SDS011;57205;51.438;-2.006;2024-02-21T05:58:36;8.13;;;1.63;;
66667;SDS011;57205;51.438;-2.006;2024-02-21T06:01:02;6.03;;;1.52;;
66667;SDS011;57205;51.438;-2.006;2024-02-21T06:03:29;4.97;;;1.45;;
66667;SDS011;57205;51.438;-2.006;2024-02-21T06:05:55;4.28;;;1.70;;
66667;SDS011;57205;51.438;-2.006;2024-02-21T06:08:21;5.20;;;1.55;;
66667;SDS011;57205;51.438;-2.006;2024-02-21T06:14:08;8.38;;;1.65;;
66667;SDS011;57205;51.438;-2.006;2024-02-21T06:16:33;5.38;;;1.30;;
66667;SDS011;57205;51.438;-2.006;2024-02-21T06:18:59;6.00;;;1.83;;
66667;SDS011;57205;51.438;-2.006;2024-02-21T06:21:28;7.03;;;1.55;;
66667;SDS011;57205;51.438;-2.006;2024-02-21T06:23:56;6.25;;;1.83;;
66667;SDS011;57205;51.438;-2.006;2024-02-21T06:26:22;5.10;;;1.45;;
66667;SDS011;57205;51.438;-2.006;2024-02-21T06:28:57;7.40;;;1.77;;
66667;SDS011;57205;51.438;-2.006;2024-02-21T06:31:24;3.30;;;1.42;;
66667;SDS011;57205;51.438;-2.006;2024-02-21T06:33:50;3.70;;;1.70;;
66667;SDS011;57205;51.438;-2.006;2024-02-21T06:36:17;5.93;;;1.55;;
66667;SDS011;57205;51.438;-2.006;2024-02-21T06:38:42;6.75;;;1.60;;
66667;SDS011;57205;51.438;-2.006;2024-02-21T06:41:15;3.92;;;1.20;;
66667;SDS011;57205;51.438;-2.006;2024-02-21T06:53:31;4.38;;;1.45;;
66667;SDS011;57205;51.438;-2.006;2024-02-21T06:59:19;4.32;;;1.63;;
66667;SDS011;57205;51.438;-2.006;2024-02-21T07:02:06;6.20;;;1.63;;
66667;SDS011;57205;51.438;-2.006;2024-02-21T07:04:31;4.57;;;1.48;;
66667;SDS011;57205;51.438;-2.006;2024-02-21T07:25:15;4.03;;;1.20;;
66667;SDS011;57205;51.438;-2.006;2024-02-21T07:27:42;3.30;;;1.35;;
66667;SDS011;57205;51.438;-2.006;2024-02-21T07:32:52;5.57;;;1.40;;
66667;SDS011;57205;51.438;-2.006;2024-02-21T07:38:09;5.72;;;1.80;;
66667;SDS011;57205;51.438;-2.006;2024-02-21T07:43:12;4.88;;;1.35;;
66667;SDS011;57205;51.438;-2.006;2024-02-21T07:56:46;6.07;;;1.33;;
66667;SDS011;57205;51.438;-2.006;2024-02-21T08:10:03;4.82;;;1.40;;
66667;SDS011;57205;51.438;-2.006;2024-02-21T08:45:37;4.18;;;1.08;;
66667;SDS011;57205;51.438;-2.006;2024-02-21T09:29:48;2.50;;;0.77;;
66667;SDS011;57205;51.438;-2.006;2024-02-21T09:37:31;2.25;;;0.80;;
66667;SDS011;57205;51.438;-2.006;2024-02-21T10:03:59;3.20;;;0.90;;
66667;SDS011;57205;51.438;-2.006;2024-02-21T10:18:37;1.33;;;0.70;;
66667;SDS011;57205;51.438;-2.006;2024-02-21T10:21:06;2.63;;;0.68;;
66667;SDS011;57205;51.438;-2.006;2024-02-21T10:31:25;2.78;;;0.70;;
66667;SDS011;57205;51.438;-2.006;2024-02-21T10:39:05;2.92;;;0.63;;
66667;SDS011;57205;51.438;-2.006;2024-02-21T10:41:31;2.70;;;1.00;;
66667;SDS011;57205;51.438;-2.006;2024-02-21T10:44:03;0.93;;;0.47;;
66667;SDS011;57205;51.438;-2.006;2024-02-21T11:04:06;13.10;;;6.85;;
66667;SDS011;57205;51.438;-2.006;2024-02-21T11:09:11;1.83;;;0.52;;
66667;SDS011;57205;51.438;-2.006;2024-02-21T11:14:28;1.73;;;0.45;;
66667;SDS011;57205;51.438;-2.006;2024-02-21T11:20:13;1.42;;;0.40;;
66667;SDS011;57205;51.438;-2.006;2024-02-21T11:25:21;1.70;;;0.52;;
66667;SDS011;57205;51.438;-2.006;2024-02-21T11:27:47;0.65;;;0.32;;
66667;SDS011;57205;51.438;-2.006;2024-02-21T11:30:12;2.03;;;0.50;;
66667;SDS011;57205;51.438;-2.006;2024-02-21T11:32:40;2.50;;;0.70;;
66667;SDS011;57205;51.438;-2.006;2024-02-21T11:35:06;0.82;;;0.32;;
66667;SDS011;57205;51.438;-2.006;2024-02-21T11:37:32;1.08;;;0.45;;
66667;SDS011;57205;51.438;-2.006;2024-02-21T11:59:10;0.57;;;0.30;;
66667;SDS011;57205;51.438;-2.006;2024-02-21T12:01:35;2.25;;;0.50;;
66667;SDS011;57205;51.438;-2.006;2024-02-21T12:04:01;1.30;;;0.50;;
66667;SDS011;57205;51.438;-2.006;2024-02-21T12:06:30;1.02;;;0.47;;
66667;SDS011;57205;51.438;-2.006;2024-02-21T12:09:15;0.40;;;0.40;;
66667;SDS011;57205;51.438;-2.006;2024-02-21T12:11:56;0.95;;;0.47;;
66667;SDS011;57205;51.438;-2.006;2024-02-21T12:14:24;1.55;;;0.50;;
66667;SDS011;57205;51.438;-2.006;2024-02-21T12:17:10;1.25;;;0.40;;
66667;SDS011;57205;51.438;-2.006;2024-02-21T12:19:43;0.45;;;0.40;;
66667;SDS011;57205;51.438;-2.006;2024-02-21T12:22:16;0.57;;;0.30;;
66667;SDS011;57205;51.438;-2.006;2024-02-21T12:24:44;1.95;;;0.63;;
66667;SDS011;57205;51.438;-2.006;2024-02-21T12:27:12;1.77;;;0.60;;
66667;SDS011;57205;51.438;-2.006;2024-02-21T12:37:25;1.33;;;0.35;;
66667;SDS011;57205;51.438;-2.006;2024-02-21T12:39:51;1.75;;;0.30;;
66667;SDS011;57205;51.438;-2.006;2024-02-21T12:42:17;1.73;;;0.40;;
66667;SDS011;57205;51.438;-2.006;2024-02-21T12:47:41;2.45;;;0.60;;
66667;SDS011;57205;51.438;-2.006;2024-02-21T12:50:09;1.38;;;0.63;;
66667;SDS011;57205;51.438;-2.006;2024-02-21T12:52:34;1.52;;;0.40;;
66667;SDS011;57205;51.438;-2.006;2024-02-21T12:55:01;0.93;;;0.43;;
66667;SDS011;57205;51.438;-2.006;2024-02-21T12:57:27;3.97;;;0.60;;
66667;SDS011;57205;51.438;-2.006;2024-02-21T13:00:02;2.00;;;0.70;;
66667;SDS011;57205;51.438;-2.006;2024-02-21T13:02:33;1.38;;;0.32;;
66667;SDS011;57205;51.438;-2.006;2024-02-21T13:07:53;3.35;;;0.55;;
66667;SDS011;57205;51.438;-2.006;2024-02-21T13:13:43;2.03;;;0.50;;
66667;SDS011;57205;51.438;-2.006;2024-02-21T13:29:44;1.42;;;0.43;;
66667;SDS011;57205;51.438;-2.006;2024-02-21T13:32:13;2.85;;;0.80;;
66667;SDS011;57205;51.438;-2.006;2024-02-21T13:34:40;2.22;;;0.85;;
66667;SDS011;57205;51.438;-2.006;2024-02-21T13:37:08;5.97;;;1.42;;
66667;SDS011;57205;51.438;-2.006;2024-02-21T13:39:35;4.93;;;1.50;;
66667;SDS011;57205;51.438;-2.006;2024-02-21T13:42:01;1.60;;;0.68;;
66667;SDS011;57205;51.438;-2.006;2024-02-21T13:44:27;4.40;;;1.00;;
66667;SDS011;57205;51.438;-2.006;2024-02-21T13:47:10;1.95;;;0.80;;
66667;SDS011;57205;51.438;-2.006;2024-02-21T13:52:30;4.93;;;1.20;;
66667;SDS011;57205;51.438;-2.006;2024-02-21T13:55:07;3.50;;;1.30;;
66667;SDS011;57205;51.438;-2.006;2024-02-21T13:57:38;2.75;;;0.80;;
66667;SDS011;57205;51.438;-2.006;2024-02-21T14:00:05;3.65;;;1.05;;
66667;SDS011;57205;51.438;-2.006;2024-02-21T14:05:46;3.83;;;1.00;;
66667;SDS011;57205;51.438;-2.006;2024-02-21T14:08:13;7.47;;;3.50;;
66667;SDS011;57205;51.438;-2.006;2024-02-21T14:14:03;3.42;;;1.20;;
66667;SDS011;57205;51.438;-2.006;2024-02-21T14:16:32;3.97;;;0.88;;
66667;SDS011;57205;51.438;-2.006;2024-02-21T14:18:58;3.17;;;1.10;;
66667;SDS011;57205;51.438;-2.006;2024-02-21T14:21:23;3.88;;;0.90;;
66667;SDS011;57205;51.438;-2.006;2024-02-21T14:23:51;3.65;;;0.90;;
66667;SDS011;57205;51.438;-2.006;2024-02-21T14:29:39;2.00;;;0.90;;
66667;SDS011;57205;51.438;-2.006;2024-02-21T14:32:05;4.07;;;1.10;;
66667;SDS011;57205;51.438;-2.006;2024-02-21T14:34:32;4.68;;;1.10;;
66667;SDS011;57205;51.438;-2.006;2024-02-21T14:40:14;2.88;;;1.17;;
66667;SDS011;57205;51.438;-2.006;2024-02-21T14:42:48;3.63;;;1.00;;
66667;SDS011;57205;51.438;-2.006;2024-02-21T14:45:14;2.22;;;0.88;;
66667;SDS011;57205;51.438;-2.006;2024-02-21T14:50:43;4.35;;;1.23;;
66667;SDS011;57205;51.438;-2.006;2024-02-21T14:53:08;1.88;;;0.52;;
66667;SDS011;57205;51.438;-2.006;2024-02-21T14:55:39;2.08;;;0.82;;
66667;SDS011;57205;51.438;-2.006;2024-02-21T14:58:10;7.43;;;3.40;;
66667;SDS011;57205;51.438;-2.006;2024-02-21T15:00:36;9.55;;;4.32;;
66667;SDS011;57205;51.438;-2.006;2024-02-21T15:03:03;3.75;;;1.63;;
66667;SDS011;57205;51.438;-2.006;2024-02-21T15:05:29;3.03;;;1.35;;
66667;SDS011;57205;51.438;-2.006;2024-02-21T15:07:58;1.58;;;0.60;;
66667;SDS011;57205;51.438;-2.006;2024-02-21T15:10:31;2.58;;;0.57;;
66667;SDS011;57205;51.438;-2.006;2024-02-21T15:12:58;1.02;;;0.55;;
66667;SDS011;57205;51.438;-2.006;2024-02-21T15:18:45;3.85;;;0.95;;
66667;SDS011;57205;51.438;-2.006;2024-02-21T15:21:14;3.13;;;1.13;;
66667;SDS011;57205;51.438;-2.006;2024-02-21T15:39:10;7.38;;;1.58;;
66667;SDS011;57205;51.438;-2.006;2024-02-21T15:41:37;9.43;;;2.08;;
66667;SDS011;57205;51.438;-2.006;2024-02-21T15:47:13;11.15;;;2.42;;
66667;SDS011;57205;51.438;-2.006;2024-02-21T15:49:42;13.65;;;2.58;;
66667;SDS011;57205;51.438;-2.006;2024-02-21T15:52:17;13.32;;;2.55;;
66667;SDS011;57205;51.438;-2.006;2024-02-21T15:54:47;16.98;;;3.78;;
66667;SDS011;57205;51.438;-2.006;2024-02-21T15:57:15;9.80;;;2.90;;
66667;SDS011;57205;51.438;-2.006;2024-02-21T16:03:05;12.52;;;2.97;;
66667;SDS011;57205;51.438;-2.006;2024-02-21T16:05:41;16.25;;;3.33;;
66667;SDS011;57205;51.438;-2.006;2024-02-21T16:08:19;16.90;;;3.67;;
66667;SDS011;57205;51.438;-2.006;2024-02-21T16:15:55;21.15;;;4.00;;
66667;SDS011;57205;51.438;-2.006;2024-02-21T16:21:06;22.83;;;4.10;;
66667;SDS011;57205;51.438;-2.006;2024-02-21T16:26:35;21.52;;;3.72;;
66667;SDS011;57205;51.438;-2.006;2024-02-21T16:29:01;18.65;;;4.05;;
66667;SDS011;57205;51.438;-2.006;2024-02-21T16:31:28;21.42;;;3.78;;
66667;SDS011;57205;51.438;-2.006;2024-02-21T16:37:06;19.20;;;4.07;;
66667;SDS011;57205;51.438;-2.006;2024-02-21T16:39:41;18.75;;;4.78;;
66667;SDS011;57205;51.438;-2.006;2024-02-21T16:42:13;14.50;;;3.33;;
66667;SDS011;57205;51.438;-2.006;2024-02-21T16:44:45;17.50;;;4.55;;
66667;SDS011;57205;51.438;-2.006;2024-02-21T16:47:10;17.45;;;3.85;;
66667;SDS011;57205;51.438;-2.006;2024-02-21T16:49:38;15.30;;;3.95;;
66667;SDS011;57205;51.438;-2.006;2024-02-21T16:52:04;18.13;;;3.95;;
66667;SDS011;57205;51.438;-2.006;2024-02-21T16:54:33;16.75;;;3.92;;
66667;SDS011;57205;51.438;-2.006;2024-02-21T16:57:01;24.10;;;4.95;;
66667;SDS011;57205;51.438;-2.006;2024-02-21T16:59:41;18.10;;;4.07;;
66667;SDS011;57205;51.438;-2.006;2024-02-21T17:02:12;20.35;;;3.97;;
66667;SDS011;57205;51.438;-2.006;2024-02-21T17:04:38;22.73;;;5.38;;
66667;SDS011;57205;51.438;-2.006;2024-02-21T17:07:15;24.88;;;4.28;;
66667;SDS011;57205;51.438;-2.006;2024-02-21T17:09:41;17.33;;;3.60;;
66667;SDS011;57205;51.438;-2.006;2024-02-21T17:12:09;21.58;;;4.63;;
66667;SDS011;57205;51.438;-2.006;2024-02-21T17:14:36;21.02;;;4.60;;
66667;SDS011;57205;51.438;-2.006;2024-02-21T17:17:12;20.23;;;4.47;;
66667;SDS011;57205;51.438;-2.006;2024-02-21T17:19:38;25.38;;;5.53;;
66667;SDS011;57205;51.438;-2.006;2024-02-21T17:22:22;19.17;;;4.55;;
66667;SDS011;57205;51.438;-2.006;2024-02-21T17:24:52;18.42;;;4.07;;
66667;SDS011;57205;51.438;-2.006;2024-02-21T17:27:18;23.95;;;3.95;;
66667;SDS011;57205;51.438;-2.006;2024-02-21T17:29:45;20.02;;;4.15;;
66667;SDS011;57205;51.438;-2.006;2024-02-21T17:32:13;22.85;;;4.43;;
66667;SDS011;57205;51.438;-2.006;2024-02-21T17:34:39;22.20;;;4.40;;
66667;SDS011;57205;51.438;-2.006;2024-02-21T17:39:52;15.30;;;3.40;;
66667;SDS011;57205;51.438;-2.006;2024-02-21T17:47:31;24.02;;;5.63;;
66667;SDS011;57205;51.438;-2.006;2024-02-21T17:49:56;18.27;;;6.93;;
66667;SDS011;57205;51.438;-2.006;2024-02-21T17:52:22;16.00;;;4.03;;
66667;SDS011;57205;51.438;-2.006;2024-02-21T17:54:47;18.42;;;4.10;;
66667;SDS011;57205;51.438;-2.006;2024-02-21T17:57:13;16.55;;;4.00;;
66667;SDS011;57205;51.438;-2.006;2024-02-21T17:59:40;16.65;;;3.55;;
66667;SDS011;57205;51.438;-2.006;2024-02-21T18:04:53;14.57;;;3.65;;
66667;SDS011;57205;51.438;-2.006;2024-02-21T18:07:19;14.38;;;3.90;;
66667;SDS011;57205;51.438;-2.006;2024-02-21T18:09:45;17.73;;;3.13;;
66667;SDS011;57205;51.438;-2.006;2024-02-21T18:12:11;18.58;;;3.40;;
66667;SDS011;57205;51.438;-2.006;2024-02-21T18:14:38;20.30;;;3.85;;
66667;SDS011;57205;51.438;-2.006;2024-02-21T18:17:04;12.93;;;4.30;;
66667;SDS011;57205;51.438;-2.006;2024-02-21T18:19:36;14.68;;;3.60;;
66667;SDS011;57205;51.438;-2.006;2024-02-21T18:22:02;12.60;;;2.60;;
66667;SDS011;57205;51.438;-2.006;2024-02-21T18:24:29;20.10;;;3.78;;
66667;SDS011;57205;51.438;-2.006;2024-02-21T18:26:58;12.75;;;3.15;;
66667;SDS011;57205;51.438;-2.006;2024-02-21T18:29:25;13.50;;;3.83;;
66667;SDS011;57205;51.438;-2.006;2024-02-21T18:31:52;12.57;;;3.92;;
66667;SDS011;57205;51.438;-2.006;2024-02-21T18:34:18;11.60;;;3.15;;
66667;SDS011;57205;51.438;-2.006;2024-02-21T18:36:44;12.07;;;2.55;;
66667;SDS011;57205;51.438;-2.006;2024-02-21T18:39:09;15.40;;;3.72;;
66667;SDS011;57205;51.438;-2.006;2024-02-21T18:41:36;13.90;;;3.25;;
66667;SDS011;57205;51.438;-2.006;2024-02-21T18:44:02;12.05;;;4.18;;
66667;SDS011;57205;51.438;-2.006;2024-02-21T18:46:29;13.40;;;4.20;;
66667;SDS011;57205;51.438;-2.006;2024-02-21T18:51:40;11.57;;;2.50;;
66667;SDS011;57205;51.438;-2.006;2024-02-21T18:54:05;6.97;;;1.90;;
66667;SDS011;57205;51.438;-2.006;2024-02-21T18:56:31;10.70;;;2.25;;
66667;SDS011;57205;51.438;-2.006;2024-02-21T18:59:01;9.48;;;1.85;;
66667;SDS011;57205;51.438;-2.006;2024-02-21T19:01:42;13.23;;;3.85;;
66667;SDS011;57205;51.438;-2.006;2024-02-21T19:04:12;11.80;;;2.28;;
66667;SDS011;57205;51.438;-2.006;2024-02-21T19:06:38;15.32;;;3.35;;
66667;SDS011;57205;51.438;-2.006;2024-02-21T19:12:28;8.25;;;2.15;;
66667;SDS011;57205;51.438;-2.006;2024-02-21T19:15:10;11.35;;;2.00;;
66667;SDS011;57205;51.438;-2.006;2024-02-21T19:17:36;14.77;;;3.17;;
66667;SDS011;57205;51.438;-2.006;2024-02-21T19:20:03;11.85;;;2.15;;
66667;SDS011;57205;51.438;-2.006;2024-02-21T19:22:28;12.02;;;2.35;;
66667;SDS011;57205;51.438;-2.006;2024-02-21T19:25:01;10.02;;;2.55;;
66667;SDS011;57205;51.438;-2.006;2024-02-21T19:30:53;9.35;;;2.05;;
66667;SDS011;57205;51.438;-2.006;2024-02-21T19:36:41;14.18;;;2.45;;
66667;SDS011;57205;51.438;-2.006;2024-02-21T19:39:08;14.65;;;2.58;;
66667;SDS011;57205;51.438;-2.006;2024-02-21T19:41:37;8.82;;;2.65;;
66667;SDS011;57205;51.438;-2.006;2024-02-21T19:44:05;16.45;;;2.85;;
66667;SDS011;57205;51.438;-2.006;2024-02-21T19:46:54;12.20;;;3.35;;
66667;SDS011;57205;51.438;-2.006;2024-02-21T19:49:26;40.75;;;14.93;;
66667;SDS011;57205;51.438;-2.006;2024-02-21T19:54:39;13.23;;;2.63;;
66667;SDS011;57205;51.438;-2.006;2024-02-21T19:57:07;9.05;;;2.63;;
66667;SDS011;57205;51.438;-2.006;2024-02-21T19:59:33;12.30;;;3.30;;
66667;SDS011;57205;51.438;-2.006;2024-02-21T20:02:06;12.60;;;2.80;;
66667;SDS011;57205;51.438;-2.006;2024-02-21T20:04:32;15.32;;;3.47;;
66667;SDS011;57205;51.438;-2.006;2024-02-21T20:07:00;13.40;;;2.42;;
66667;SDS011;57205;51.438;-2.006;2024-02-21T20:09:26;10.65;;;2.25;;
66667;SDS011;57205;51.438;-2.006;2024-02-21T20:11:51;12.20;;;2.20;;
66667;SDS011;57205;51.438;-2.006;2024-02-21T20:14:17;12.10;;;2.33;;
66667;SDS011;57205;51.438;-2.006;2024-02-21T20:16:44;11.50;;;2.75;;
66667;SDS011;57205;51.438;-2.006;2024-02-21T20:19:13;18.65;;;2.95;;
66667;SDS011;57205;51.438;-2.006;2024-02-21T20:21:39;14.82;;;2.70;;
66667;SDS011;57205;51.438;-2.006;2024-02-21T20:24:07;12.45;;;2.58;;
66667;SDS011;57205;51.438;-2.006;2024-02-21T20:26:34;13.57;;;2.35;;
66667;SDS011;57205;51.438;-2.006;2024-02-21T20:29:00;14.98;;;3.28;;
66667;SDS011;57205;51.438;-2.006;2024-02-21T20:34:47;14.15;;;2.75;;
66667;SDS011;57205;51.438;-2.006;2024-02-21T20:37:16;14.95;;;2.50;;
66667;SDS011;57205;51.438;-2.006;2024-02-21T20:39:41;13.85;;;2.72;;
66667;SDS011;57205;51.438;-2.006;2024-02-21T20:45:08;13.23;;;2.40;;
66667;SDS011;57205;51.438;-2.006;2024-02-21T20:50:19;10.48;;;2.55;;
66667;SDS011;57205;51.438;-2.006;2024-02-21T20:52:48;11.30;;;2.00;;
66667;SDS011;57205;51.438;-2.006;2024-02-21T20:55:14;9.30;;;2.95;;
66667;SDS011;57205;51.438;-2.006;2024-02-21T20:57:40;15.90;;;2.28;;
66667;SDS011;57205;51.438;-2.006;2024-02-21T21:00:06;11.00;;;2.47;;
66667;SDS011;57205;51.438;-2.006;2024-02-21T21:02:34;9.75;;;2.10;;
66667;SDS011;57205;51.438;-2.006;2024-02-21T21:05:00;8.63;;;2.50;;
66667;SDS011;57205;51.438;-2.006;2024-02-21T21:07:25;12.70;;;2.15;;
66667;SDS011;57205;51.438;-2.006;2024-02-21T21:09:50;16.80;;;2.40;;
66667;SDS011;57205;51.438;-2.006;2024-02-21T21:15:09;8.52;;;1.65;;
66667;SDS011;57205;51.438;-2.006;2024-02-21T21:20:18;15.60;;;2.90;;
66667;SDS011;57205;51.438;-2.006;2024-02-21T21:22:49;8.82;;;1.80;;
66667;SDS011;57205;51.438;-2.006;2024-02-21T21:25:15;10.00;;;2.63;;
66667;SDS011;57205;51.438;-2.006;2024-02-21T21:30:39;10.43;;;2.30;;
66667;SDS011;57205;51.438;-2.006;2024-02-21T21:33:18;13.48;;;3.10;;
66667;SDS011;57205;51.438;-2.006;2024-02-21T21:35:44;8.77;;;2.20;;
66667;SDS011;57205;51.438;-2.006;2024-02-21T21:38:10;10.07;;;2.22;;
66667;SDS011;57205;51.438;-2.006;2024-02-21T21:40:38;15.50;;;2.63;;
66667;SDS011;57205;51.438;-2.006;2024-02-21T21:45:53;14.45;;;2.55;;
66667;SDS011;57205;51.438;-2.006;2024-02-21T21:48:18;11.50;;;2.80;;
66667;SDS011;57205;51.438;-2.006;2024-02-21T21:50:44;16.98;;;4.68;;
66667;SDS011;57205;51.438;-2.006;2024-02-21T21:53:09;8.35;;;2.38;;
66667;SDS011;57205;51.438;-2.006;2024-02-21T21:55:35;16.52;;;3.05;;
66667;SDS011;57205;51.438;-2.006;2024-02-21T21:58:02;15.27;;;3.10;;
66667;SDS011;57205;51.438;-2.006;2024-02-21T22:00:28;12.07;;;2.47;;
66667;SDS011;57205;51.438;-2.006;2024-02-21T22:02:55;12.65;;;3.05;;
66667;SDS011;57205;51.438;-2.006;2024-02-21T22:05:21;11.57;;;3.05;;
66667;SDS011;57205;51.438;-2.006;2024-02-21T22:07:46;15.30;;;2.33;;